Accueil
METAR-TAF:

METAR-TAF

Aéroports :

Chatham-Kent Municipal Airport

Chatham-Kent, Ontario, Canada

latitude: 42-18-22N, longitude: 82-04-54W, altitude: 197 m

Observation

Le bulletin a été fait il y a 49 minutes, à 08:00 UTC
Vent 8 kt de sud-ouest avec des rafales jusqu'à 15 kt
Température 15°C
Humidité 82%
Pression 1013 hPa
Visibilité: 14.5 km
Nuages épars à une hauteur de 11000 ft
Nuages épars à une hauteur de 13000 ft
Nuages épars à une hauteur de 18000 ft

METAR: CYCK 210800Z AUTO 23008G15KT 9SM SCT110 SCT130 SCT180 15/12 A2990 RMK SLP128 DENSITY ALT 800FT

Heure: 04:49 (08:49 UTC)


TAF: absent

Observations et prévisions météorologiques de plus de 4000 aéroports (messages METAR et TAF).

Les stations disponibles sont représentées par des disques jaunes et rouges sur la carte.

Passer la souris dessus pour voir le nom de la station.

Cliquer dessus pour voir les observations et prévisions météorologiques.

Pour changer de carte: cliquez sur les boutons verts avec une croix noire pour zoomer, sur le bouton vert avec un tiret pour effectuer un zoom arrière, ou sur les flèches vertes pour les cartes adjacentes.


METAR-TAF: